sensor_id;sensor_type;location;lat;lon;timestamp;temperature;humidity
34837;DHT22;21053;50.848;4.652;2024-03-22T00:00:59;13.50;99.90
34837;DHT22;21053;50.848;4.652;2024-03-22T00:03:29;13.60;99.90
34837;DHT22;21053;50.848;4.652;2024-03-22T00:05:58;13.50;99.90
34837;DHT22;21053;50.848;4.652;2024-03-22T00:08:29;13.60;99.90
34837;DHT22;21053;50.848;4.652;2024-03-22T00:10:57;13.50;99.90
34837;DHT22;21053;50.848;4.652;2024-03-22T00:13:30;13.50;99.90
34837;DHT22;21053;50.848;4.652;2024-03-22T00:16:02;13.50;99.90
34837;DHT22;21053;50.848;4.652;2024-03-22T00:18:36;13.60;99.90
34837;DHT22;21053;50.848;4.652;2024-03-22T00:21:03;13.60;99.90
34837;DHT22;21053;50.848;4.652;2024-03-22T00:23:28;13.60;99.90
34837;DHT22;21053;50.848;4.652;2024-03-22T00:25:59;13.60;99.90
34837;DHT22;21053;50.848;4.652;2024-03-22T00:28:24;13.70;99.90
34837;DHT22;21053;50.848;4.652;2024-03-22T00:30:53;13.70;99.90
34837;DHT22;21053;50.848;4.652;2024-03-22T00:33:24;13.70;99.90
34837;DHT22;21053;50.848;4.652;2024-03-22T00:35:53;13.70;99.90
34837;DHT22;21053;50.848;4.652;2024-03-22T00:38:22;13.80;99.90
34837;DHT22;21053;50.848;4.652;2024-03-22T00:40:51;13.70;99.90
34837;DHT22;21053;50.848;4.652;2024-03-22T00:43:20;13.80;99.90
34837;DHT22;21053;50.848;4.652;2024-03-22T00:45:52;13.70;99.90
34837;DHT22;21053;50.848;4.652;2024-03-22T00:48:21;13.80;99.90
34837;DHT22;21053;50.848;4.652;2024-03-22T00:51:08;13.80;99.90
34837;DHT22;21053;50.848;4.652;2024-03-22T00:53:37;13.70;99.90
34837;DHT22;21053;50.848;4.652;2024-03-22T00:56:14;13.70;99.90
34837;DHT22;21053;50.848;4.652;2024-03-22T00:58:43;13.80;99.90
34837;DHT22;21053;50.848;4.652;2024-03-22T01:01:13;13.80;99.90
34837;DHT22;21053;50.848;4.652;2024-03-22T01:03:49;13.80;99.90
34837;DHT22;21053;50.848;4.652;2024-03-22T01:06:17;13.70;99.90
34837;DHT22;21053;50.848;4.652;2024-03-22T01:08:52;13.70;99.90
34837;DHT22;21053;50.848;4.652;2024-03-22T01:11:19;13.70;99.90
34837;DHT22;21053;50.848;4.652;2024-03-22T01:13:52;13.70;99.90
34837;DHT22;21053;50.848;4.652;2024-03-22T01:16:21;13.70;99.90
34837;DHT22;21053;50.848;4.652;2024-03-22T01:18:48;13.70;99.90
34837;DHT22;21053;50.848;4.652;2024-03-22T01:21:15;13.70;99.90
34837;DHT22;21053;50.848;4.652;2024-03-22T01:23:46;13.70;99.90
34837;DHT22;21053;50.848;4.652;2024-03-22T01:26:15;13.60;99.90
34837;DHT22;21053;50.848;4.652;2024-03-22T01:28:47;13.60;99.90
34837;DHT22;21053;50.848;4.652;2024-03-22T01:31:13;13.60;99.90
34837;DHT22;21053;50.848;4.652;2024-03-22T01:33:44;13.60;99.90
34837;DHT22;21053;50.848;4.652;2024-03-22T01:36:16;13.60;99.90
34837;DHT22;21053;50.848;4.652;2024-03-22T01:38:54;13.60;99.90
34837;DHT22;21053;50.848;4.652;2024-03-22T01:41:20;13.60;99.90
34837;DHT22;21053;50.848;4.652;2024-03-22T01:43:46;13.60;99.90
34837;DHT22;21053;50.848;4.652;2024-03-22T01:46:25;13.50;99.90
34837;DHT22;21053;50.848;4.652;2024-03-22T01:48:54;13.40;99.90
34837;DHT22;21053;50.848;4.652;2024-03-22T01:51:37;13.30;99.90
34837;DHT22;21053;50.848;4.652;2024-03-22T01:54:08;13.20;99.90
34837;DHT22;21053;50.848;4.652;2024-03-22T01:56:40;13.10;99.90
34837;DHT22;21053;50.848;4.652;2024-03-22T01:59:33;13.10;99.90
34837;DHT22;21053;50.848;4.652;2024-03-22T02:02:02;13.00;99.90
34837;DHT22;21053;50.848;4.652;2024-03-22T02:04:33;12.90;99.90
34837;DHT22;21053;50.848;4.652;2024-03-22T02:07:04;12.90;99.90
34837;DHT22;21053;50.848;4.652;2024-03-22T02:09:35;12.80;99.90
34837;DHT22;21053;50.848;4.652;2024-03-22T02:12:06;12.80;99.90
34837;DHT22;21053;50.848;4.652;2024-03-22T02:14:34;12.90;99.90
34837;DHT22;21053;50.848;4.652;2024-03-22T02:17:12;12.80;99.90
34837;DHT22;21053;50.848;4.652;2024-03-22T02:19:55;12.80;99.90
34837;DHT22;21053;50.848;4.652;2024-03-22T02:22:26;12.70;99.90
34837;DHT22;21053;50.848;4.652;2024-03-22T02:24:58;12.60;99.90
34837;DHT22;21053;50.848;4.652;2024-03-22T02:27:25;12.50;99.90
34837;DHT22;21053;50.848;4.652;2024-03-22T02:29:52;12.40;99.90
34837;DHT22;21053;50.848;4.652;2024-03-22T02:32:33;12.40;99.90
34837;DHT22;21053;50.848;4.652;2024-03-22T02:35:00;12.40;99.90
34837;DHT22;21053;50.848;4.652;2024-03-22T02:37:25;12.40;99.90
34837;DHT22;21053;50.848;4.652;2024-03-22T02:39:56;12.40;99.90
34837;DHT22;21053;50.848;4.652;2024-03-22T02:42:25;12.30;99.90
34837;DHT22;21053;50.848;4.652;2024-03-22T02:44:59;12.40;99.90
34837;DHT22;21053;50.848;4.652;2024-03-22T02:47:30;12.50;99.90
34837;DHT22;21053;50.848;4.652;2024-03-22T02:50:00;12.50;99.90
34837;DHT22;21053;50.848;4.652;2024-03-22T02:52:31;12.40;99.90
34837;DHT22;21053;50.848;4.652;2024-03-22T02:55:43;12.50;99.90
34837;DHT22;21053;50.848;4.652;2024-03-22T02:58:09;12.50;99.90
34837;DHT22;21053;50.848;4.652;2024-03-22T03:00:41;12.50;99.90
34837;DHT22;21053;50.848;4.652;2024-03-22T03:03:09;12.60;99.90
34837;DHT22;21053;50.848;4.652;2024-03-22T03:05:42;12.60;99.90
34837;DHT22;21053;50.848;4.652;2024-03-22T03:08:08;12.60;99.90
34837;DHT22;21053;50.848;4.652;2024-03-22T03:10:43;12.70;99.90
34837;DHT22;21053;50.848;4.652;2024-03-22T03:13:16;12.70;99.90
34837;DHT22;21053;50.848;4.652;2024-03-22T03:15:52;12.70;99.90
34837;DHT22;21053;50.848;4.652;2024-03-22T03:18:19;12.70;99.90
34837;DHT22;21053;50.848;4.652;2024-03-22T03:20:48;12.80;99.90
34837;DHT22;21053;50.848;4.652;2024-03-22T03:23:17;12.80;99.90
34837;DHT22;21053;50.848;4.652;2024-03-22T03:25:55;12.90;99.90
34837;DHT22;21053;50.848;4.652;2024-03-22T03:28:32;12.90;99.90
34837;DHT22;21053;50.848;4.652;2024-03-22T03:31:18;12.80;99.90
34837;DHT22;21053;50.848;4.652;2024-03-22T03:33:49;12.80;99.90
34837;DHT22;21053;50.848;4.652;2024-03-22T03:36:16;12.80;99.90
34837;DHT22;21053;50.848;4.652;2024-03-22T03:38:44;12.90;99.90
34837;DHT22;21053;50.848;4.652;2024-03-22T03:41:13;12.90;99.90
34837;DHT22;21053;50.848;4.652;2024-03-22T03:43:47;12.90;99.90
34837;DHT22;21053;50.848;4.652;2024-03-22T03:46:23;12.90;99.90
34837;DHT22;21053;50.848;4.652;2024-03-22T03:49:07;12.90;99.90
34837;DHT22;21053;50.848;4.652;2024-03-22T03:51:39;12.90;99.90
34837;DHT22;21053;50.848;4.652;2024-03-22T03:54:40;13.00;99.90
34837;DHT22;21053;50.848;4.652;2024-03-22T03:57:20;13.00;99.90
34837;DHT22;21053;50.848;4.652;2024-03-22T03:59:49;13.00;99.90
34837;DHT22;21053;50.848;4.652;2024-03-22T04:02:19;13.10;99.90
34837;DHT22;21053;50.848;4.652;2024-03-22T04:04:45;13.00;99.90
34837;DHT22;21053;50.848;4.652;2024-03-22T04:07:14;13.00;99.90
34837;DHT22;21053;50.848;4.652;2024-03-22T04:09:43;13.10;99.90
34837;DHT22;21053;50.848;4.652;2024-03-22T04:12:12;12.90;99.90
34837;DHT22;21053;50.848;4.652;2024-03-22T04:14:37;13.00;99.90
34837;DHT22;21053;50.848;4.652;2024-03-22T04:17:06;13.00;99.90
34837;DHT22;21053;50.848;4.652;2024-03-22T04:19:50;13.10;99.90
34837;DHT22;21053;50.848;4.652;2024-03-22T04:22:20;13.20;99.90
34837;DHT22;21053;50.848;4.652;2024-03-22T04:24:54;13.20;99.90
34837;DHT22;21053;50.848;4.652;2024-03-22T04:27:29;13.00;99.90
34837;DHT22;21053;50.848;4.652;2024-03-22T04:30:06;13.00;99.90
34837;DHT22;21053;50.848;4.652;2024-03-22T04:32:37;13.10;99.90
34837;DHT22;21053;50.848;4.652;2024-03-22T04:35:19;13.10;99.90
34837;DHT22;21053;50.848;4.652;2024-03-22T04:37:48;13.10;99.90
34837;DHT22;21053;50.848;4.652;2024-03-22T04:40:18;13.10;99.90
34837;DHT22;21053;50.848;4.652;2024-03-22T04:42:44;13.00;99.90
34837;DHT22;21053;50.848;4.652;2024-03-22T04:45:11;13.00;99.90
34837;DHT22;21053;50.848;4.652;2024-03-22T04:47:43;13.00;99.90
34837;DHT22;21053;50.848;4.652;2024-03-22T04:50:11;13.00;99.90
34837;DHT22;21053;50.848;4.652;2024-03-22T04:52:46;13.00;99.90
34837;DHT22;21053;50.848;4.652;2024-03-22T04:55:18;13.00;99.90
34837;DHT22;21053;50.848;4.652;2024-03-22T04:57:45;13.00;99.90
34837;DHT22;21053;50.848;4.652;2024-03-22T05:00:13;13.00;99.90
34837;DHT22;21053;50.848;4.652;2024-03-22T05:02:41;13.10;99.90
34837;DHT22;21053;50.848;4.652;2024-03-22T05:05:11;13.10;99.90
34837;DHT22;21053;50.848;4.652;2024-03-22T05:07:42;13.00;99.90
34837;DHT22;21053;50.848;4.652;2024-03-22T05:10:23;13.10;99.90
34837;DHT22;21053;50.848;4.652;2024-03-22T05:13:08;13.00;99.90
34837;DHT22;21053;50.848;4.652;2024-03-22T05:23:08;13.10;99.90
34837;DHT22;21053;50.848;4.652;2024-03-22T05:26:11;13.00;99.90
34837;DHT22;21053;50.848;4.652;2024-03-22T05:29:19;13.10;99.90
34837;DHT22;21053;50.848;4.652;2024-03-22T05:39:41;13.00;99.90
34837;DHT22;21053;50.848;4.652;2024-03-22T05:42:08;12.90;99.90
34837;DHT22;21053;50.848;4.652;2024-03-22T05:44:38;12.80;99.90
34837;DHT22;21053;50.848;4.652;2024-03-22T05:47:12;12.90;99.90
34837;DHT22;21053;50.848;4.652;2024-03-22T05:52:10;12.90;99.90
34837;DHT22;21053;50.848;4.652;2024-03-22T05:54:38;12.90;99.90
34837;DHT22;21053;50.848;4.652;2024-03-22T05:57:15;12.90;99.90
34837;DHT22;21053;50.848;4.652;2024-03-22T05:59:42;13.00;99.90
34837;DHT22;21053;50.848;4.652;2024-03-22T06:02:12;13.00;99.90
34837;DHT22;21053;50.848;4.652;2024-03-22T06:04:40;13.00;99.90
34837;DHT22;21053;50.848;4.652;2024-03-22T06:07:07;13.00;99.90
34837;DHT22;21053;50.848;4.652;2024-03-22T06:09:36;13.00;99.90
34837;DHT22;21053;50.848;4.652;2024-03-22T06:12:26;13.00;99.90
34837;DHT22;21053;50.848;4.652;2024-03-22T06:14:55;13.00;99.90
34837;DHT22;21053;50.848;4.652;2024-03-22T06:17:24;13.10;99.90
34837;DHT22;21053;50.848;4.652;2024-03-22T06:19:52;13.10;99.90
34837;DHT22;21053;50.848;4.652;2024-03-22T06:22:20;13.10;99.90
34837;DHT22;21053;50.848;4.652;2024-03-22T06:24:47;13.10;99.90
34837;DHT22;21053;50.848;4.652;2024-03-22T06:27:12;13.10;99.90
34837;DHT22;21053;50.848;4.652;2024-03-22T06:29:43;13.10;99.90
34837;DHT22;21053;50.848;4.652;2024-03-22T06:32:09;13.00;99.90
34837;DHT22;21053;50.848;4.652;2024-03-22T06:34:36;13.00;99.90
34837;DHT22;21053;50.848;4.652;2024-03-22T06:37:08;13.00;99.90
34837;DHT22;21053;50.848;4.652;2024-03-22T06:39:37;13.00;99.90
34837;DHT22;21053;50.848;4.652;2024-03-22T06:42:03;13.00;99.90
34837;DHT22;21053;50.848;4.652;2024-03-22T06:44:30;12.90;99.90
34837;DHT22;21053;50.848;4.652;2024-03-22T06:46:57;13.00;99.90
34837;DHT22;21053;50.848;4.652;2024-03-22T06:49:23;13.00;99.90
34837;DHT22;21053;50.848;4.652;2024-03-22T06:51:52;13.00;99.90
34837;DHT22;21053;50.848;4.652;2024-03-22T06:54:21;13.10;99.90
34837;DHT22;21053;50.848;4.652;2024-03-22T06:56:49;13.20;99.90
34837;DHT22;21053;50.848;4.652;2024-03-22T06:59:15;13.10;99.90
34837;DHT22;21053;50.848;4.652;2024-03-22T07:01:43;13.10;99.90
34837;DHT22;21053;50.848;4.652;2024-03-22T07:04:11;13.10;99.90
34837;DHT22;21053;50.848;4.652;2024-03-22T07:06:37;13.00;99.90
34837;DHT22;21053;50.848;4.652;2024-03-22T07:09:06;13.10;99.90
34837;DHT22;21053;50.848;4.652;2024-03-22T07:11:34;13.10;99.90
34837;DHT22;21053;50.848;4.652;2024-03-22T07:14:03;13.20;99.90
34837;DHT22;21053;50.848;4.652;2024-03-22T07:16:31;13.20;99.90
34837;DHT22;21053;50.848;4.652;2024-03-22T07:19:00;13.20;99.90
34837;DHT22;21053;50.848;4.652;2024-03-22T07:21:25;13.00;99.90
34837;DHT22;21053;50.848;4.652;2024-03-22T07:23:51;13.00;99.90
34837;DHT22;21053;50.848;4.652;2024-03-22T07:26:18;12.80;99.90
34837;DHT22;21053;50.848;4.652;2024-03-22T07:28:44;12.80;99.90
34837;DHT22;21053;50.848;4.652;2024-03-22T07:31:10;12.70;99.90
34837;DHT22;21053;50.848;4.652;2024-03-22T07:33:36;12.70;99.90
34837;DHT22;21053;50.848;4.652;2024-03-22T07:36:05;12.70;99.90
34837;DHT22;21053;50.848;4.652;2024-03-22T07:38:32;12.80;99.90
34837;DHT22;21053;50.848;4.652;2024-03-22T07:40:59;12.80;99.90
34837;DHT22;21053;50.848;4.652;2024-03-22T07:43:25;12.80;99.90
34837;DHT22;21053;50.848;4.652;2024-03-22T07:45:53;12.80;99.90
34837;DHT22;21053;50.848;4.652;2024-03-22T07:48:19;12.80;99.90
34837;DHT22;21053;50.848;4.652;2024-03-22T07:50:46;12.90;99.90
34837;DHT22;21053;50.848;4.652;2024-03-22T07:53:15;12.70;99.90
34837;DHT22;21053;50.848;4.652;2024-03-22T07:55:42;12.80;99.90
34837;DHT22;21053;50.848;4.652;2024-03-22T07:58:11;12.80;99.90
34837;DHT22;21053;50.848;4.652;2024-03-22T08:00:39;12.90;99.90
34837;DHT22;21053;50.848;4.652;2024-03-22T08:03:09;13.00;99.90
34837;DHT22;21053;50.848;4.652;2024-03-22T08:07:43;13.00;99.90
34837;DHT22;21053;50.848;4.652;2024-03-22T08:10:14;13.10;99.90
34837;DHT22;21053;50.848;4.652;2024-03-22T08:12:42;13.20;99.90
34837;DHT22;21053;50.848;4.652;2024-03-22T08:15:11;13.40;99.90
34837;DHT22;21053;50.848;4.652;2024-03-22T08:17:39;13.50;99.90
34837;DHT22;21053;50.848;4.652;2024-03-22T08:20:05;13.50;99.90
34837;DHT22;21053;50.848;4.652;2024-03-22T08:22:37;13.60;99.90
34837;DHT22;21053;50.848;4.652;2024-03-22T08:25:04;13.60;99.90
34837;DHT22;21053;50.848;4.652;2024-03-22T08:27:30;13.70;99.90
34837;DHT22;21053;50.848;4.652;2024-03-22T08:29:56;13.70;99.90
34837;DHT22;21053;50.848;4.652;2024-03-22T08:32:23;13.80;99.90
34837;DHT22;21053;50.848;4.652;2024-03-22T08:34:49;13.60;99.90
34837;DHT22;21053;50.848;4.652;2024-03-22T08:37:17;13.60;99.90
34837;DHT22;21053;50.848;4.652;2024-03-22T08:39:44;13.60;99.90
34837;DHT22;21053;50.848;4.652;2024-03-22T08:42:12;13.70;99.90
34837;DHT22;21053;50.848;4.652;2024-03-22T08:44:37;13.80;99.90
34837;DHT22;21053;50.848;4.652;2024-03-22T08:47:04;13.70;99.90
34837;DHT22;21053;50.848;4.652;2024-03-22T08:49:33;13.70;99.90
34837;DHT22;21053;50.848;4.652;2024-03-22T08:51:58;13.80;99.90
34837;DHT22;21053;50.848;4.652;2024-03-22T08:54:27;13.90;99.90
34837;DHT22;21053;50.848;4.652;2024-03-22T08:56:54;13.90;99.90
34837;DHT22;21053;50.848;4.652;2024-03-22T08:59:23;14.00;99.90
34837;DHT22;21053;50.848;4.652;2024-03-22T09:01:53;14.10;99.90
34837;DHT22;21053;50.848;4.652;2024-03-22T09:04:27;14.20;99.90
34837;DHT22;21053;50.848;4.652;2024-03-22T09:06:55;14.20;99.90
34837;DHT22;21053;50.848;4.652;2024-03-22T09:09:27;14.20;99.90
34837;DHT22;21053;50.848;4.652;2024-03-22T09:11:57;14.20;99.90
34837;DHT22;21053;50.848;4.652;2024-03-22T09:14:23;14.40;99.90
34837;DHT22;21053;50.848;4.652;2024-03-22T09:16:49;14.50;99.90
34837;DHT22;21053;50.848;4.652;2024-03-22T09:19:15;14.60;99.90
34837;DHT22;21053;50.848;4.652;2024-03-22T09:21:42;14.60;99.90
34837;DHT22;21053;50.848;4.652;2024-03-22T09:24:08;14.70;99.90
34837;DHT22;21053;50.848;4.652;2024-03-22T09:26:35;14.90;99.90
34837;DHT22;21053;50.848;4.652;2024-03-22T09:29:02;14.90;99.90
34837;DHT22;21053;50.848;4.652;2024-03-22T09:31:31;15.00;99.90
34837;DHT22;21053;50.848;4.652;2024-03-22T09:33:58;14.90;99.90
34837;DHT22;21053;50.848;4.652;2024-03-22T09:36:24;15.20;99.90
34837;DHT22;21053;50.848;4.652;2024-03-22T09:38:50;15.60;99.90
34837;DHT22;21053;50.848;4.652;2024-03-22T09:41:25;16.10;99.90
34837;DHT22;21053;50.848;4.652;2024-03-22T09:43:58;16.20;99.90
34837;DHT22;21053;50.848;4.652;2024-03-22T09:46:25;16.10;99.90
34837;DHT22;21053;50.848;4.652;2024-03-22T09:48:54;16.20;99.90
34837;DHT22;21053;50.848;4.652;2024-03-22T09:51:23;15.90;99.90
34837;DHT22;21053;50.848;4.652;2024-03-22T09:53:53;15.80;99.90
34837;DHT22;21053;50.848;4.652;2024-03-22T09:56:21;15.70;99.90
34837;DHT22;21053;50.848;4.652;2024-03-22T09:58:50;15.70;99.90
34837;DHT22;21053;50.848;4.652;2024-03-22T10:01:19;15.70;99.90
34837;DHT22;21053;50.848;4.652;2024-03-22T10:03:48;15.70;99.90
34837;DHT22;21053;50.848;4.652;2024-03-22T10:06:15;15.50;99.90
34837;DHT22;21053;50.848;4.652;2024-03-22T10:08:45;15.30;99.90
34837;DHT22;21053;50.848;4.652;2024-03-22T10:11:12;15.40;99.90
34837;DHT22;21053;50.848;4.652;2024-03-22T10:13:38;15.40;99.90
34837;DHT22;21053;50.848;4.652;2024-03-22T10:16:04;15.30;99.90
34837;DHT22;21053;50.848;4.652;2024-03-22T10:18:33;15.40;99.90
34837;DHT22;21053;50.848;4.652;2024-03-22T10:21:00;15.50;99.90
34837;DHT22;21053;50.848;4.652;2024-03-22T10:23:29;15.60;99.90
34837;DHT22;21053;50.848;4.652;2024-03-22T10:25:59;15.70;99.90
34837;DHT22;21053;50.848;4.652;2024-03-22T10:28:30;15.70;99.90
34837;DHT22;21053;50.848;4.652;2024-03-22T10:30:59;15.70;99.90
34837;DHT22;21053;50.848;4.652;2024-03-22T10:33:26;15.70;99.90
34837;DHT22;21053;50.848;4.652;2024-03-22T10:35:54;15.70;99.90
34837;DHT22;21053;50.848;4.652;2024-03-22T10:38:23;15.70;99.90
34837;DHT22;21053;50.848;4.652;2024-03-22T10:40:52;15.70;99.90
34837;DHT22;21053;50.848;4.652;2024-03-22T10:43:21;15.60;99.90
34837;DHT22;21053;50.848;4.652;2024-03-22T10:45:56;15.60;99.90
34837;DHT22;21053;50.848;4.652;2024-03-22T10:48:25;15.60;99.90
34837;DHT22;21053;50.848;4.652;2024-03-22T10:50:55;15.60;99.90
34837;DHT22;21053;50.848;4.652;2024-03-22T10:53:25;15.60;99.90
34837;DHT22;21053;50.848;4.652;2024-03-22T10:56:04;15.60;99.90
34837;DHT22;21053;50.848;4.652;2024-03-22T10:58:33;15.60;99.90
34837;DHT22;21053;50.848;4.652;2024-03-22T11:00:59;15.70;99.90
34837;DHT22;21053;50.848;4.652;2024-03-22T11:03:29;15.80;99.90
34837;DHT22;21053;50.848;4.652;2024-03-22T11:05:56;15.80;99.90
34837;DHT22;21053;50.848;4.652;2024-03-22T11:08:31;15.80;99.90
34837;DHT22;21053;50.848;4.652;2024-03-22T11:11:12;16.10;99.90
34837;DHT22;21053;50.848;4.652;2024-03-22T11:13:42;16.20;99.90
34837;DHT22;21053;50.848;4.652;2024-03-22T11:16:10;16.30;99.90
34837;DHT22;21053;50.848;4.652;2024-03-22T11:18:39;16.30;99.90
34837;DHT22;21053;50.848;4.652;2024-03-22T11:21:08;16.20;99.90
34837;DHT22;21053;50.848;4.652;2024-03-22T11:23:36;16.20;99.90
34837;DHT22;21053;50.848;4.652;2024-03-22T11:26:04;16.30;99.90
34837;DHT22;21053;50.848;4.652;2024-03-22T11:28:31;16.20;99.90
34837;DHT22;21053;50.848;4.652;2024-03-22T11:30:59;16.20;99.90
34837;DHT22;21053;50.848;4.652;2024-03-22T11:33:27;16.10;99.90
34837;DHT22;21053;50.848;4.652;2024-03-22T11:35:53;16.10;99.90
34837;DHT22;21053;50.848;4.652;2024-03-22T11:38:21;16.00;99.90
34837;DHT22;21053;50.848;4.652;2024-03-22T11:40:47;16.00;99.90
34837;DHT22;21053;50.848;4.652;2024-03-22T11:43:16;16.10;99.90
34837;DHT22;21053;50.848;4.652;2024-03-22T11:45:43;16.00;99.90
34837;DHT22;21053;50.848;4.652;2024-03-22T11:48:09;15.80;99.90
34837;DHT22;21053;50.848;4.652;2024-03-22T11:50:37;15.70;99.90
34837;DHT22;21053;50.848;4.652;2024-03-22T11:53:06;15.70;99.90
34837;DHT22;21053;50.848;4.652;2024-03-22T11:55:35;15.40;99.90
34837;DHT22;21053;50.848;4.652;2024-03-22T11:58:04;15.30;99.90
34837;DHT22;21053;50.848;4.652;2024-03-22T12:00:32;15.20;99.90
34837;DHT22;21053;50.848;4.652;2024-03-22T12:02:59;15.20;99.90
34837;DHT22;21053;50.848;4.652;2024-03-22T12:05:26;15.20;99.90
34837;DHT22;21053;50.848;4.652;2024-03-22T12:07:55;15.20;99.90
34837;DHT22;21053;50.848;4.652;2024-03-22T12:10:24;15.20;99.90
34837;DHT22;21053;50.848;4.652;2024-03-22T12:12:53;15.10;99.90
34837;DHT22;21053;50.848;4.652;2024-03-22T12:15:21;15.30;99.90
34837;DHT22;21053;50.848;4.652;2024-03-22T12:17:51;15.20;99.90
34837;DHT22;21053;50.848;4.652;2024-03-22T12:20:18;15.20;99.90
34837;DHT22;21053;50.848;4.652;2024-03-22T12:22:44;15.20;99.90
34837;DHT22;21053;50.848;4.652;2024-03-22T12:25:12;15.10;99.90
34837;DHT22;21053;50.848;4.652;2024-03-22T12:27:41;15.20;99.90
34837;DHT22;21053;50.848;4.652;2024-03-22T12:30:07;15.10;99.90
34837;DHT22;21053;50.848;4.652;2024-03-22T12:32:35;15.10;99.90
34837;DHT22;21053;50.848;4.652;2024-03-22T12:35:06;15.10;99.90
34837;DHT22;21053;50.848;4.652;2024-03-22T12:37:34;15.10;99.90
34837;DHT22;21053;50.848;4.652;2024-03-22T12:40:02;15.00;99.90
34837;DHT22;21053;50.848;4.652;2024-03-22T12:42:31;14.90;99.90
34837;DHT22;21053;50.848;4.652;2024-03-22T12:44:58;14.90;99.90
34837;DHT22;21053;50.848;4.652;2024-03-22T12:47:27;14.80;99.90
34837;DHT22;21053;50.848;4.652;2024-03-22T12:49:54;14.70;99.90
34837;DHT22;21053;50.848;4.652;2024-03-22T12:52:22;14.40;99.90
34837;DHT22;21053;50.848;4.652;2024-03-22T12:54:49;14.30;99.90
34837;DHT22;21053;50.848;4.652;2024-03-22T12:57:15;14.40;99.90
34837;DHT22;21053;50.848;4.652;2024-03-22T12:59:41;14.50;99.90
34837;DHT22;21053;50.848;4.652;2024-03-22T13:02:08;14.50;99.90
34837;DHT22;21053;50.848;4.652;2024-03-22T13:04:37;14.60;99.90
34837;DHT22;21053;50.848;4.652;2024-03-22T13:07:08;14.50;99.90
34837;DHT22;21053;50.848;4.652;2024-03-22T13:09:34;14.50;99.90
34837;DHT22;21053;50.848;4.652;2024-03-22T13:12:03;14.40;99.90
34837;DHT22;21053;50.848;4.652;2024-03-22T13:14:32;14.30;99.90
34837;DHT22;21053;50.848;4.652;2024-03-22T13:17:00;14.30;99.90
34837;DHT22;21053;50.848;4.652;2024-03-22T13:19:29;14.30;99.90
34837;DHT22;21053;50.848;4.652;2024-03-22T13:21:58;14.20;99.90
34837;DHT22;21053;50.848;4.652;2024-03-22T13:24:27;14.10;99.90
34837;DHT22;21053;50.848;4.652;2024-03-22T13:26:55;14.10;99.90
34837;DHT22;21053;50.848;4.652;2024-03-22T13:29:24;13.90;99.90
34837;DHT22;21053;50.848;4.652;2024-03-22T13:31:50;13.90;99.90
34837;DHT22;21053;50.848;4.652;2024-03-22T13:34:16;14.00;99.90
34837;DHT22;21053;50.848;4.652;2024-03-22T13:36:41;13.90;99.90
34837;DHT22;21053;50.848;4.652;2024-03-22T13:39:09;13.90;99.90
34837;DHT22;21053;50.848;4.652;2024-03-22T13:41:39;13.90;99.90
34837;DHT22;21053;50.848;4.652;2024-03-22T13:44:06;14.00;99.90
34837;DHT22;21053;50.848;4.652;2024-03-22T13:46:36;13.90;99.90
34837;DHT22;21053;50.848;4.652;2024-03-22T13:49:18;13.90;99.90
34837;DHT22;21053;50.848;4.652;2024-03-22T13:51:49;13.90;99.90
34837;DHT22;21053;50.848;4.652;2024-03-22T13:54:17;14.00;99.90
34837;DHT22;21053;50.848;4.652;2024-03-22T13:56:46;14.00;99.90
34837;DHT22;21053;50.848;4.652;2024-03-22T13:59:15;14.10;99.90
34837;DHT22;21053;50.848;4.652;2024-03-22T14:01:43;14.10;99.90
34837;DHT22;21053;50.848;4.652;2024-03-22T14:04:16;14.30;99.90
34837;DHT22;21053;50.848;4.652;2024-03-22T14:06:45;14.30;99.90
34837;DHT22;21053;50.848;4.652;2024-03-22T14:09:11;14.30;99.90
34837;DHT22;21053;50.848;4.652;2024-03-22T14:11:42;14.30;99.90
34837;DHT22;21053;50.848;4.652;2024-03-22T14:14:16;14.30;99.90
34837;DHT22;21053;50.848;4.652;2024-03-22T14:16:45;14.20;99.90
34837;DHT22;21053;50.848;4.652;2024-03-22T14:19:13;14.20;99.90
34837;DHT22;21053;50.848;4.652;2024-03-22T14:21:44;14.40;99.90
34837;DHT22;21053;50.848;4.652;2024-03-22T14:24:13;14.30;99.90
34837;DHT22;21053;50.848;4.652;2024-03-22T14:26:42;14.30;99.90
34837;DHT22;21053;50.848;4.652;2024-03-22T14:29:12;14.30;99.90
34837;DHT22;21053;50.848;4.652;2024-03-22T14:31:40;14.20;99.90
34837;DHT22;21053;50.848;4.652;2024-03-22T14:34:09;14.10;99.90
34837;DHT22;21053;50.848;4.652;2024-03-22T14:36:35;14.10;99.90
34837;DHT22;21053;50.848;4.652;2024-03-22T14:39:02;14.10;99.90
34837;DHT22;21053;50.848;4.652;2024-03-22T14:41:32;14.10;99.90
34837;DHT22;21053;50.848;4.652;2024-03-22T14:43:59;14.10;99.90
34837;DHT22;21053;50.848;4.652;2024-03-22T14:46:26;14.20;99.90
34837;DHT22;21053;50.848;4.652;2024-03-22T14:48:54;14.10;99.90
34837;DHT22;21053;50.848;4.652;2024-03-22T14:51:21;14.10;99.90
34837;DHT22;21053;50.848;4.652;2024-03-22T14:53:50;14.10;99.90
34837;DHT22;21053;50.848;4.652;2024-03-22T14:56:19;14.00;99.90
34837;DHT22;21053;50.848;4.652;2024-03-22T14:58:45;14.00;99.90
34837;DHT22;21053;50.848;4.652;2024-03-22T15:01:11;14.00;99.90
34837;DHT22;21053;50.848;4.652;2024-03-22T15:03:40;14.10;99.90
34837;DHT22;21053;50.848;4.652;2024-03-22T15:06:08;14.10;99.90
34837;DHT22;21053;50.848;4.652;2024-03-22T15:08:34;14.10;99.90
34837;DHT22;21053;50.848;4.652;2024-03-22T15:10:59;14.10;99.90
34837;DHT22;21053;50.848;4.652;2024-03-22T15:13:25;14.10;99.90
34837;DHT22;21053;50.848;4.652;2024-03-22T15:15:58;14.20;99.90
34837;DHT22;21053;50.848;4.652;2024-03-22T15:18:27;14.20;99.90
34837;DHT22;21053;50.848;4.652;2024-03-22T15:20:54;14.20;99.90
34837;DHT22;21053;50.848;4.652;2024-03-22T15:23:23;14.10;99.90
34837;DHT22;21053;50.848;4.652;2024-03-22T15:25:51;14.00;99.90
34837;DHT22;21053;50.848;4.652;2024-03-22T15:28:18;14.00;99.90
34837;DHT22;21053;50.848;4.652;2024-03-22T15:30:47;14.00;99.90
34837;DHT22;21053;50.848;4.652;2024-03-22T15:33:13;14.00;99.90
34837;DHT22;21053;50.848;4.652;2024-03-22T15:35:41;13.90;99.90
34837;DHT22;21053;50.848;4.652;2024-03-22T15:38:13;13.80;99.90
34837;DHT22;21053;50.848;4.652;2024-03-22T15:40:39;13.70;99.90
34837;DHT22;21053;50.848;4.652;2024-03-22T15:43:08;13.70;99.90
34837;DHT22;21053;50.848;4.652;2024-03-22T15:45:34;13.60;99.90
34837;DHT22;21053;50.848;4.652;2024-03-22T15:48:05;13.50;99.90
34837;DHT22;21053;50.848;4.652;2024-03-22T15:50:37;13.40;99.90
34837;DHT22;21053;50.848;4.652;2024-03-22T15:53:08;13.40;99.90
34837;DHT22;21053;50.848;4.652;2024-03-22T15:55:36;13.40;99.90
34837;DHT22;21053;50.848;4.652;2024-03-22T15:58:05;13.50;99.90
34837;DHT22;21053;50.848;4.652;2024-03-22T16:00:32;13.40;99.90
34837;DHT22;21053;50.848;4.652;2024-03-22T16:03:01;13.40;99.90
34837;DHT22;21053;50.848;4.652;2024-03-22T16:05:29;13.40;99.90